Time;durP1;ratioP1;P1;durP2;ratioP2;P2;SDS_P1;SDS_P2;PMS_P1;PMS_P2;Temp;Humidity;BMP_temperature;BMP_pressure;BME280_temperature;BME280_humidity;BME280_pressure;Samples;Min_cycle;Max_cycle;Signal;HPM_P1;HPM_P2
2020/12/15 10:08:24;;;;;;;35.77;24.33;;;;;;;5.24;96.71;98668.91;5168381;27;20599;-81
2020/12/15 10:10:51;;;;;;;33.87;23.23;;;;;;;5.69;97.56;98665.97;5165050;27;40424;-82
2020/12/15 10:13:19;;;;;;;29.53;22.00;;;;;;;6.28;96.44;98670.25;5166430;27;41643;-82
2020/12/15 10:15:46;;;;;;;27.57;21.53;;;;;;;6.72;93.82;98675.13;5172039;22;44201;-83
2020/12/15 10:18:13;;;;;;;30.13;22.40;;;;;;;6.97;91.13;98656.31;5064309;28;44314;-82
2020/12/15 10:20:40;;;;;;;26.43;21.63;;;;;;;7.33;88.96;98675.47;5062247;28;40074;-82
2020/12/15 10:23:07;;;;;;;27.67;21.10;;;;;;;7.61;87.14;98671.38;5047488;28;42998;-82
2020/12/15 10:28:17;;;;;;;25.30;18.57;;;;;;;8.00;84.58;98663.97;5022562;28;42421;-80
2020/12/15 10:30:44;;;;;;;24.17;19.70;;;;;;;8.16;82.33;98670.06;5024142;28;40472;-80
2020/12/15 10:33:12;;;;;;;23.83;18.93;;;;;;;8.26;80.99;98663.38;5007027;28;40619;-80
2020/12/15 10:35:39;;;;;;;25.87;20.20;;;;;;;8.39;80.99;98670.63;5006940;28;43552;-80
2020/12/15 10:38:06;;;;;;;24.57;19.77;;;;;;;8.34;80.10;98652.41;5202477;22;42974;-81
2020/12/15 10:40:33;;;;;;;24.63;19.77;;;;;;;8.38;79.05;98647.81;5026235;28;39804;-80
2020/12/15 10:43:02;;;;;;;24.20;19.60;;;;;;;8.53;78.84;98670.69;5044175;28;42805;-81
2020/12/15 10:45:29;;;;;;;23.87;18.47;;;;;;;8.54;78.68;98651.25;5042979;28;42540;-81
2020/12/15 10:47:56;;;;;;;24.27;19.03;;;;;;;8.61;78.40;98647.34;5027091;28;43034;-80
2020/12/15 10:50:24;;;;;;;20.57;17.33;;;;;;;8.73;78.17;98649.25;5106634;22;41301;-82
2020/12/15 10:52:51;;;;;;;22.83;18.93;;;;;;;8.76;77.89;98651.72;5023077;28;41877;-79
2020/12/15 10:55:18;;;;;;;21.80;18.33;;;;;;;8.77;77.86;98656.06;5022297;28;43755;-79
2020/12/15 10:57:45;;;;;;;23.63;20.23;;;;;;;8.77;77.55;98648.16;4991751;28;43375;-80
2020/12/15 11:00:13;;;;;;;22.53;18.07;;;;;;;8.89;77.32;98652.72;5003137;28;39930;-80
2020/12/15 11:02:40;;;;;;;21.83;17.33;;;;;;;9.00;77.25;98642.38;5093470;23;42989;-80
2020/12/15 11:05:07;;;;;;;24.47;18.67;;;;;;;9.37;76.43;98640.16;5043753;28;43666;-79
2020/12/15 11:07:35;;;;;;;25.13;21.77;;;;;;;9.66;75.70;98647.09;5027969;28;43638;-80
2020/12/15 11:10:02;;;;;;;29.47;24.10;;;;;;;9.92;75.10;98636.69;5027305;28;40728;-80
2020/12/15 11:12:30;;;;;;;23.67;19.80;;;;;;;10.24;74.48;98648.78;5042668;28;41514;-81
2020/12/15 11:14:57;;;;;;;24.57;19.97;;;;;;;10.41;73.64;98645.84;5088013;23;43193;-82
2020/12/15 11:17:25;;;;;;;21.17;18.40;;;;;;;10.39;73.17;98650.41;4987661;28;43913;-80
2020/12/15 11:19:52;;;;;;;22.03;18.90;;;;;;;10.39;73.39;98647.75;4974295;28;41282;-82
2020/12/15 11:22:19;;;;;;;22.73;19.27;;;;;;;10.26;71.88;98628.31;4970435;28;43264;-82
2020/12/15 11:24:46;;;;;;;24.53;19.47;;;;;;;10.42;72.74;98641.41;5042898;23;44051;-83
2020/12/15 11:27:13;;;;;;;21.87;18.37;;;;;;;10.43;72.22;98632.53;4992451;28;40766;-80
2020/12/15 11:29:41;;;;;;;20.73;17.30;;;;;;;10.34;73.04;98620.75;5076477;23;40673;-85
2020/12/15 11:32:08;;;;;;;20.97;16.87;;;;;;;10.33;73.06;98615.56;4956928;28;42156;-83
2020/12/15 11:34:36;;;;;;;22.03;19.13;;;;;;;10.15;72.56;98617.56;4990227;28;43358;-85
2020/12/15 11:37:05;;;;;;;23.90;18.90;;;;;;;10.03;72.19;98613.06;5063082;23;42678;-87
2020/12/15 11:39:32;;;;;;;22.73;19.77;;;;;;;9.93;72.29;98611.94;5028825;28;40063;-86
2020/12/15 11:41:59;;;;;;;21.00;17.80;;;;;;;9.89;73.32;98598.06;5013160;28;43295;-83
2020/12/15 11:44:26;;;;;;;20.63;17.70;;;;;;;9.84;73.26;98596.66;5013332;28;43389;-83
2020/12/15 11:46:53;;;;;;;21.23;17.30;;;;;;;9.85;72.55;98611.59;5028369;28;42701;-83
2020/12/15 11:49:20;;;;;;;20.67;18.20;;;;;;;9.68;72.96;98608.22;5115023;22;40347;-86
2020/12/15 11:51:52;;;;;;;20.23;17.10;;;;;;;9.66;73.39;98614.53;5013283;28;42084;-85
2020/12/15 11:54:19;;;;;;;21.80;18.37;;;;;;;9.51;72.93;98611.06;5028780;28;42747;-86
2020/12/15 11:56:47;;;;;;;21.67;17.97;;;;;;;9.48;73.25;98621.84;5013069;28;43592;-85
2020/12/15 11:59:14;;;;;;;23.13;18.57;;;;;;;9.44;73.42;98609.75;5029599;28;39445;-87
2020/12/15 12:01:41;;;;;;;20.07;17.77;;;;;;;9.44;73.70;98609.75;5082267;23;43077;-86
2020/12/15 12:04:09;;;;;;;22.37;18.03;;;;;;;9.43;73.63;98607.19;4993357;28;43370;-87
2020/12/15 12:06:36;;;;;;;19.77;17.23;;;;;;;9.45;73.55;98608.78;4992929;28;42461;-87
2020/12/15 12:09:05;;;;;;;21.73;18.10;;;;;;;9.53;73.52;98625.03;5008812;28;40057;-86
2020/12/15 12:14:33;;;;;;;21.20;17.37;;;;;;;9.46;73.92;98610.50;4988404;28;44131;-85
2020/12/15 12:17:00;;;;;;;21.93;17.77;;;;;;;9.53;73.67;98625.03;5087134;23;42855;-82
2020/12/15 12:19:27;;;;;;;18.23;16.20;;;;;;;9.58;73.94;98632.69;5028227;28;41577;-82
2020/12/15 12:21:55;;;;;;;20.93;17.20;;;;;;;9.61;73.85;98637.78;5012520;28;43825;-82
2020/12/15 12:24:22;;;;;;;18.97;15.63;;;;;;;9.57;73.61;98623.91;5093506;23;43412;-82
2020/12/15 12:26:50;;;;;;;18.80;16.00;;;;;;;9.69;73.56;98631.06;5027614;28;42545;-82
2020/12/15 12:29:17;;;;;;;20.57;16.93;;;;;;;9.77;73.15;98627.09;5012064;28;41764;-81
2020/12/15 12:31:48;;;;;;;19.27;16.87;;;;;;;9.81;72.95;98618.88;5027998;28;41428;-82
2020/12/15 12:34:15;;;;;;;21.00;16.80;;;;;;;9.97;72.07;98624.91;5028637;28;44468;-82
2020/12/15 12:36:42;;;;;;;23.93;18.63;;;;;;;9.99;71.50;98611.56;5093764;23;43476;-82
2020/12/15 12:39:10;;;;;;;21.50;17.90;;;;;;;10.13;71.97;98615.97;4992353;28;40313;-82
2020/12/15 12:41:38;;;;;;;20.83;17.90;;;;;;;10.14;72.08;98615.03;5009566;28;41505;-76
2020/12/15 12:44:05;;;;;;;23.07;17.23;;;;;;;10.24;71.97;98621.47;5008244;28;42569;-81
2020/12/15 12:46:32;;;;;;;20.57;18.13;;;;;;;10.16;71.14;98606.03;5008093;28;43577;-82
2020/12/15 12:48:59;;;;;;;22.37;17.43;;;;;;;10.25;71.57;98629.31;5091748;23;41350;-82
2020/12/15 12:51:28;;;;;;;21.60;17.60;;;;;;;10.26;71.10;98630.97;5028607;28;41809;-82
2020/12/15 12:53:56;;;;;;;19.63;16.80;;;;;;;10.28;71.44;98629.06;5011286;28;43718;-81
2020/12/15 12:56:23;;;;;;;18.77;16.43;;;;;;;10.28;71.21;98637.03;5028384;28;41806;-82
2020/12/15 13:01:24;;;;;;;18.37;15.97;;;;;;;10.29;70.59;98636.06;4951044;28;42264;-82
2020/12/15 13:03:51;;;;;;;19.07;16.03;;;;;;;10.27;70.17;98643.25;4953079;28;43426;-82
2020/12/15 13:06:18;;;;;;;25.30;17.27;;;;;;;10.23;69.83;98641.78;4969469;28;42471;-82
2020/12/15 13:08:45;;;;;;;20.33;15.40;;;;;;;10.26;70.14;98638.09;4969298;28;41534;-81
2020/12/15 13:11:14;;;;;;;17.20;15.10;;;;;;;10.25;70.86;98639.88;5066485;23;42215;-82
2020/12/15 13:13:41;;;;;;;17.03;14.43;;;;;;;10.22;70.83;98645.38;5122809;22;42963;-81
2020/12/15 13:16:09;;;;;;;18.47;16.23;;;;;;;10.15;70.79;98644.00;4995226;28;42635;-81
2020/12/15 13:18:37;;;;;;;19.33;16.80;;;;;;;10.03;70.50;98647.44;5011993;28;40602;-83
2020/12/15 13:21:04;;;;;;;22.30;17.90;;;;;;;9.94;70.62;98654.19;5011136;28;42368;-80
2020/12/15 13:23:31;;;;;;;17.30;15.37;;;;;;;9.90;71.23;98657.09;5109389;23;42567;-82
2020/12/15 13:25:58;;;;;;;19.17;16.27;;;;;;;9.85;70.87;98656.56;5027660;28;42665;-81
2020/12/15 13:28:25;;;;;;;18.03;15.77;;;;;;;9.81;71.16;98655.03;5027328;28;39899;-81
2020/12/15 13:30:52;;;;;;;21.63;17.67;;;;;;;9.77;70.95;98658.84;5027430;28;41795;-81
2020/12/15 13:33:20;;;;;;;19.90;16.77;;;;;;;9.66;71.25;98647.09;5011039;28;43525;-82
2020/12/15 13:35:48;;;;;;;20.40;16.60;;;;;;;9.63;71.36;98655.25;5111572;22;41866;-81
2020/12/15 13:38:15;;;;;;;19.97;16.90;;;;;;;9.57;71.78;98663.56;5011318;28;40466;-82
2020/12/15 13:40:42;;;;;;;19.10;16.33;;;;;;;9.51;71.40;98673.66;5028326;28;43334;-82
2020/12/15 13:43:09;;;;;;;20.13;16.47;;;;;;;9.45;71.66;98685.44;5010931;28;44262;-81
2020/12/15 13:45:36;;;;;;;19.40;17.30;;;;;;;9.38;72.18;98688.56;5010813;28;42398;-82
2020/12/15 13:48:25;;;;;;;23.20;18.17;;;;;;;9.29;72.80;98689.94;5173953;22;39939;31
2020/12/15 13:50:53;;;;;;;22.63;18.87;;;;;;;9.13;72.89;98678.63;4966223;28;42712;-82
2020/12/15 13:53:20;;;;;;;19.80;16.97;;;;;;;9.04;73.29;98679.13;4984401;28;42856;-82
2020/12/15 13:55:47;;;;;;;21.43;17.60;;;;;;;8.96;73.82;98687.53;4952503;28;42287;-82
2020/12/15 13:58:18;;;;;;;22.00;16.80;;;;;;;8.73;74.40;98664.25;5055098;22;39735;31
2020/12/15 14:00:45;;;;;;;23.27;19.00;;;;;;;8.77;75.14;98687.75;4950500;28;43243;-82
2020/12/15 14:03:13;;;;;;;23.67;18.60;;;;;;;8.79;75.60;98698.19;4968452;28;44200;-85
2020/12/15 14:05:40;;;;;;;25.00;19.53;;;;;;;8.77;75.28;98693.03;4966913;28;42838;-81
2020/12/15 14:08:08;;;;;;;23.27;18.77;;;;;;;8.81;75.54;98698.97;4968800;28;40013;-82
2020/12/15 14:10:36;;;;;;;19.10;16.53;;;;;;;8.80;76.00;98698.13;5053898;23;42415;-83
2020/12/15 14:13:03;;;;;;;21.67;16.77;;;;;;;8.86;75.75;98695.13;4991758;28;43542;-82
2020/12/15 14:15:30;;;;;;;22.53;17.87;;;;;;;8.84;75.99;98698.81;4991092;28;43338;-83
2020/12/15 14:17:57;;;;;;;18.33;16.17;;;;;;;8.83;75.80;98690.03;5008200;28;39734;-83
2020/12/15 14:20:25;;;;;;;21.47;16.63;;;;;;;8.85;76.15;98696.06;5009111;28;41643;-83
2020/12/15 14:22:52;;;;;;;22.03;16.70;;;;;;;8.88;76.72;98705.63;5100180;23;44513;-82
2020/12/15 14:25:20;;;;;;;22.93;18.10;;;;;;;8.80;76.18;98697.25;5026977;28;42247;-83
2020/12/15 14:27:47;;;;;;;20.43;17.07;;;;;;;8.91;76.51;98711.53;5010912;28;40648;-83
2020/12/15 14:30:14;;;;;;;21.93;16.60;;;;;;;8.85;76.34;98695.22;5027046;28;42059;-82
2020/12/15 14:32:41;;;;;;;21.60;17.63;;;;;;;8.97;76.17;98716.50;5009280;28;44223;-83
2020/12/15 14:35:08;;;;;;;24.33;18.57;;;;;;;8.91;76.30;98706.25;5088453;23;42667;-82
2020/12/15 14:37:35;;;;;;;20.57;17.53;;;;;;;8.90;76.41;98720.41;5007124;28;40508;-83
2020/12/15 14:40:04;;;;;;;20.63;16.50;;;;;;;8.88;76.54;98717.03;4991458;28;42383;-82
2020/12/15 14:42:33;;;;;;;22.00;16.90;;;;;;;8.78;76.73;98699.16;5007541;28;44732;-82
2020/12/15 14:45:00;;;;;;;19.77;16.73;;;;;;;8.79;76.66;98706.97;5083511;22;44238;-82
2020/12/15 14:47:29;;;;;;;22.97;16.93;;;;;;;8.71;77.13;98693.38;4989735;28;41034;-79
2020/12/15 14:49:56;;;;;;;21.03;16.37;;;;;;;8.83;77.24;98719.06;4985762;28;43190;-79
2020/12/15 14:52:22;;;;;;;21.20;16.17;;;;;;;8.79;76.98;98711.41;5003465;28;42758;-79
2020/12/15 14:54:50;;;;;;;22.53;17.83;;;;;;;8.76;77.20;98727.44;4989909;28;41909;-79
2020/12/15 14:57:16;;;;;;;20.67;16.60;;;;;;;8.75;77.32;98726.59;5102111;22;40011;-78
2020/12/15 14:59:45;;;;;;;20.70;16.00;;;;;;;8.76;77.09;98730.94;5011243;28;41418;-79
2020/12/15 15:02:12;;;;;;;22.73;16.63;;;;;;;8.73;77.37;98736.38;4993696;28;43909;-79
2020/12/15 15:04:39;;;;;;;22.23;17.53;;;;;;;8.70;77.08;98739.19;4993843;28;41995;-78
2020/12/15 15:07:06;;;;;;;23.77;18.07;;;;;;;8.68;77.11;98745.50;5009959;28;40040;-78
2020/12/15 15:09:33;;;;;;;21.23;16.30;;;;;;;8.68;77.34;98745.50;5085128;23;42504;-79
2020/12/15 15:12:01;;;;;;;20.80;15.80;;;;;;;8.69;77.09;98747.19;4992973;28;43113;-79
2020/12/15 15:14:28;;;;;;;18.73;15.50;;;;;;;8.69;77.14;98748.03;5008748;28;41886;-78
2020/12/15 15:16:59;;;;;;;20.60;16.47;;;;;;;8.72;77.27;98750.53;5011881;28;39655;-78
2020/12/15 15:19:26;;;;;;;20.70;16.30;;;;;;;8.71;77.05;98745.31;5009783;28;41515;-78
2020/12/15 15:21:53;;;;;;;23.70;18.23;;;;;;;8.71;77.09;98745.31;5105478;23;42591;-79
2020/12/15 15:24:21;;;;;;;20.13;16.77;;;;;;;8.69;76.92;98747.19;5002038;28;40152;-79
2020/12/15 15:26:48;;;;;;;28.83;20.40;;;;;;;8.57;77.14;98728.47;4989772;28;41157;-80
2020/12/15 15:29:15;;;;;;;23.23;18.93;;;;;;;8.62;77.51;98736.16;4958375;28;42166;-81
